Time;durP1;ratioP1;P1;durP2;ratioP2;P2;SDS_P1;SDS_P2;PMS_P1;PMS_P2;Temp;Humidity;BMP_temperature;BMP_pressure;BME280_temperature;BME280_humidity;BME280_pressure;Samples;Min_cycle;Max_cycle;Signal;HPM_P1;HPM_P2
2021/04/27 00:00:27;;;;;;;10.23;6.65;;;11.30;99.90;;;;;;5137124;27;20194;-66
2021/04/27 00:02:53;;;;;;;9.20;6.23;;;11.30;99.90;;;;;;5118735;27;20290;-67
2021/04/27 00:05:19;;;;;;;6.90;5.83;;;11.40;99.90;;;;;;5137064;27;20281;-68
2021/04/27 00:07:45;;;;;;;7.85;5.50;;;11.30;99.90;;;;;;5136782;27;20203;-67
2021/04/27 00:10:12;;;;;;;9.77;5.72;;;11.30;99.90;;;;;;5136843;27;20202;-68
2021/04/27 00:12:38;;;;;;;9.50;5.80;;;11.20;99.90;;;;;;5137120;27;20191;-68
2021/04/27 00:15:08;;;;;;;10.00;6.18;;;11.30;99.90;;;;;;5118471;27;20586;-69
2021/04/27 00:17:34;;;;;;;8.70;5.70;;;11.30;99.90;;;;;;5137043;27;20659;-67
2021/04/27 00:20:00;;;;;;;9.00;6.00;;;11.30;99.90;;;;;;5118344;27;20175;-67
2021/04/27 00:22:26;;;;;;;7.93;6.50;;;11.20;99.90;;;;;;5137030;27;20486;-68
2021/04/27 00:24:51;;;;;;;8.60;6.23;;;11.30;99.90;;;;;;5118165;27;20205;-68
2021/04/27 00:27:18;;;;;;;11.60;6.53;;;11.30;99.90;;;;;;5136872;27;20218;-68
2021/04/27 00:29:43;;;;;;;6.70;5.63;;;11.20;99.90;;;;;;5136441;27;20211;-68
2021/04/27 00:32:09;;;;;;;9.37;6.87;;;11.30;99.90;;;;;;5136779;27;20258;-67
2021/04/27 00:34:35;;;;;;;6.83;5.43;;;11.30;99.90;;;;;;5136387;27;20532;-67
2021/04/27 00:37:00;;;;;;;6.83;5.17;;;11.30;99.90;;;;;;5136680;27;20187;-68
2021/04/27 00:39:26;;;;;;;5.83;5.23;;;11.20;99.90;;;;;;5117958;27;20654;-69
2021/04/27 00:41:51;;;;;;;9.80;6.50;;;11.20;99.90;;;;;;5117931;27;20656;-68
2021/04/27 00:44:17;;;;;;;8.57;6.63;;;11.10;99.90;;;;;;5136261;27;20581;-69
2021/04/27 00:46:43;;;;;;;8.93;6.90;;;11.20;99.90;;;;;;5135939;27;20317;-68
2021/04/27 00:49:08;;;;;;;8.07;6.10;;;11.20;99.90;;;;;;5136132;27;20294;-68
2021/04/27 00:51:34;;;;;;;8.20;6.40;;;11.20;99.90;;;;;;5136012;27;20648;-67
2021/04/27 00:54:03;;;;;;;9.95;6.63;;;11.20;99.90;;;;;;5135961;27;20195;-67
2021/04/27 00:56:29;;;;;;;11.05;7.07;;;11.20;99.90;;;;;;5135897;27;20217;-67
2021/04/27 00:58:55;;;;;;;8.80;7.25;;;11.20;99.90;;;;;;5135993;27;20210;-67
2021/04/27 01:01:20;;;;;;;12.10;7.50;;;11.20;99.90;;;;;;5117553;27;20183;-67
2021/04/27 01:03:46;;;;;;;10.60;8.07;;;11.20;99.90;;;;;;5135789;27;20202;-69
2021/04/27 01:06:11;;;;;;;9.53;6.90;;;11.20;99.90;;;;;;5135951;27;20180;-68
2021/04/27 01:09:00;;;;;;;11.33;7.20;;;11.20;99.90;;;;;;5135615;27;20287;-69
2021/04/27 01:11:47;;;;;;;7.68;5.97;;;11.20;99.90;;;;;;5135640;27;20174;-67
2021/04/27 01:14:28;;;;;;;11.57;7.65;;;11.10;99.90;;;;;;5135567;27;20236;-69
2021/04/27 01:17:07;;;;;;;8.27;6.43;;;11.10;99.90;;;;;;5135875;27;20750;-69
2021/04/27 01:19:42;;;;;;;9.55;6.90;;;11.10;99.90;;;;;;5135629;27;20187;-69
2021/04/27 01:22:12;;;;;;;13.35;8.90;;;11.10;99.90;;;;;;5135910;27;20170;-67
2021/04/27 01:24:51;;;;;;;9.27;7.07;;;11.10;99.90;;;;;;5135405;27;20643;-68
2021/04/27 01:27:18;;;;;;;9.23;6.65;;;11.10;99.90;;;;;;5135441;27;20191;-67
2021/04/27 01:29:45;;;;;;;8.23;6.65;;;11.10;99.90;;;;;;5135320;27;20207;-68
2021/04/27 01:32:10;;;;;;;12.75;7.03;;;11.10;99.90;;;;;;5135805;27;20175;-67
2021/04/27 01:34:39;;;;;;;10.93;6.33;;;11.00;99.90;;;;;;5135269;27;20204;-69
2021/04/27 01:37:05;;;;;;;9.27;6.40;;;11.10;99.90;;;;;;5135672;27;20422;-67
2021/04/27 01:39:32;;;;;;;12.57;6.72;;;11.00;99.90;;;;;;5135186;27;20270;-68
2021/04/27 01:42:00;;;;;;;7.07;5.97;;;10.90;99.90;;;;;;5116757;27;20187;-67
2021/04/27 01:44:28;;;;;;;10.45;7.75;;;10.90;99.90;;;;;;5116683;27;20191;-69
2021/04/27 01:46:54;;;;;;;11.50;6.55;;;10.70;99.90;;;;;;5116514;27;20590;-67
2021/04/27 01:49:20;;;;;;;11.68;6.35;;;10.50;99.90;;;;;;5116442;27;20210;-68
2021/04/27 01:51:46;;;;;;;7.53;5.73;;;10.50;99.90;;;;;;5135243;27;20186;-68
2021/04/27 01:54:13;;;;;;;12.33;6.53;;;10.50;99.90;;;;;;5135064;27;20443;-67
2021/04/27 01:56:39;;;;;;;8.80;6.70;;;10.40;99.90;;;;;;5135159;27;20418;-68
2021/04/27 01:59:05;;;;;;;10.10;6.90;;;10.30;99.90;;;;;;5135068;27;20191;-67
2021/04/27 02:01:32;;;;;;;10.73;8.07;;;10.10;99.90;;;;;;5116689;27;20189;-67
2021/04/27 02:03:58;;;;;;;10.30;7.22;;;10.20;99.90;;;;;;5134721;27;20269;-68
2021/04/27 02:06:23;;;;;;;7.33;5.80;;;10.20;99.90;;;;;;5135027;27;20182;-67
2021/04/27 02:09:07;;;;;;;9.50;6.00;;;10.30;99.90;;;;;;5133928;27;20431;-67
2021/04/27 02:11:42;;;;;;;9.23;6.03;;;10.40;99.90;;;;;;5134999;27;20210;-67
2021/04/27 02:14:10;;;;;;;7.95;6.05;;;10.40;99.90;;;;;;5116350;28;20702;-67
2021/04/27 02:16:52;;;;;;;12.10;7.18;;;10.40;99.90;;;;;;5134417;28;20190;-68
2021/04/27 02:19:25;;;;;;;9.40;7.30;;;10.50;99.90;;;;;;5134685;28;20235;-69
2021/04/27 02:21:55;;;;;;;9.50;6.63;;;10.50;99.90;;;;;;5134838;28;20175;-67
2021/04/27 02:24:23;;;;;;;8.38;6.28;;;10.60;99.90;;;;;;5116071;28;20190;-68
2021/04/27 02:26:49;;;;;;;9.32;6.82;;;10.60;99.90;;;;;;5134792;28;20171;-68
2021/04/27 02:29:15;;;;;;;8.32;6.80;;;10.70;99.90;;;;;;5134423;28;20406;-67
2021/04/27 02:31:41;;;;;;;9.20;7.13;;;10.50;99.90;;;;;;5134761;28;20210;-68
2021/04/27 02:34:07;;;;;;;10.10;7.37;;;10.60;99.90;;;;;;5116129;28;20267;-68
2021/04/27 02:36:37;;;;;;;8.37;6.27;;;10.60;99.90;;;;;;5134728;28;20177;-67
2021/04/27 02:39:05;;;;;;;10.20;6.70;;;10.60;99.90;;;;;;5134478;28;20193;-68
2021/04/27 02:41:32;;;;;;;9.50;7.03;;;10.50;99.90;;;;;;5116148;28;20176;-67
2021/04/27 02:43:59;;;;;;;10.30;7.63;;;10.60;99.90;;;;;;5134262;28;20203;-68
2021/04/27 02:46:25;;;;;;;12.13;6.60;;;10.50;99.90;;;;;;5134282;28;20279;-68
2021/04/27 02:48:51;;;;;;;11.83;8.37;;;10.60;99.90;;;;;;5134279;28;20191;-68
2021/04/27 02:51:16;;;;;;;12.20;6.73;;;10.50;99.90;;;;;;5134520;28;20171;-68
2021/04/27 02:53:42;;;;;;;10.50;7.27;;;10.50;99.90;;;;;;5134351;28;20183;-69
2021/04/27 02:56:07;;;;;;;12.20;8.57;;;10.60;99.90;;;;;;5134435;28;20183;-67
2021/04/27 02:58:33;;;;;;;8.07;6.80;;;10.70;99.90;;;;;;5134299;28;20202;-67
2021/04/27 03:00:58;;;;;;;10.23;7.80;;;10.60;99.90;;;;;;5134521;28;20210;-67
2021/04/27 03:03:24;;;;;;;8.80;6.40;;;10.70;99.90;;;;;;5134242;28;20198;-68
2021/04/27 03:05:50;;;;;;;9.37;6.43;;;10.70;99.90;;;;;;5134211;28;20534;-68
2021/04/27 03:08:16;;;;;;;10.07;7.03;;;10.70;99.90;;;;;;5134207;28;20271;-67
2021/04/27 03:10:41;;;;;;;11.10;7.37;;;10.60;99.90;;;;;;5134144;28;20199;-68
2021/04/27 03:13:07;;;;;;;7.40;6.30;;;10.60;99.90;;;;;;5134128;28;20563;-67
2021/04/27 03:15:34;;;;;;;9.88;6.78;;;10.60;99.90;;;;;;5115628;28;20171;-69
2021/04/27 03:18:00;;;;;;;6.82;6.13;;;10.60;99.90;;;;;;5115567;28;20195;-68
2021/04/27 03:20:26;;;;;;;12.50;7.63;;;10.60;99.90;;;;;;5137149;27;20174;-68
2021/04/27 03:22:51;;;;;;;10.85;7.97;;;10.60;99.90;;;;;;5119104;27;20225;-68
2021/04/27 03:25:17;;;;;;;9.33;7.10;;;10.60;99.90;;;;;;5137867;27;20171;-68
2021/04/27 03:27:43;;;;;;;8.13;6.70;;;10.60;99.90;;;;;;5138084;27;20195;-67
2021/04/27 03:30:11;;;;;;;12.10;8.38;;;10.50;99.90;;;;;;5119267;27;20222;-68
2021/04/27 03:32:37;;;;;;;10.95;6.53;;;10.60;99.90;;;;;;5138094;27;20298;-67
2021/04/27 03:35:08;;;;;;;9.47;7.10;;;10.50;99.90;;;;;;5137629;27;20176;-68
2021/04/27 03:37:34;;;;;;;9.40;7.72;;;10.50;99.90;;;;;;5119391;27;20284;-67
2021/04/27 03:39:59;;;;;;;10.03;7.30;;;10.40;99.90;;;;;;5137546;27;20196;-68
2021/04/27 03:42:25;;;;;;;9.50;7.23;;;10.40;99.90;;;;;;5137722;27;20198;-69
2021/04/27 03:44:51;;;;;;;13.77;7.77;;;10.40;99.90;;;;;;5119104;27;20452;-68
2021/04/27 03:47:17;;;;;;;9.00;7.43;;;10.50;99.90;;;;;;5137260;27;20242;-67
2021/04/27 03:49:42;;;;;;;10.23;7.53;;;10.50;99.90;;;;;;5118857;27;20925;-68
2021/04/27 03:52:08;;;;;;;11.30;7.60;;;10.50;99.90;;;;;;5137837;27;20515;-68
2021/04/27 03:54:34;;;;;;;7.60;6.13;;;10.50;99.90;;;;;;5137208;27;20218;-68
2021/04/27 03:57:02;;;;;;;9.37;7.00;;;10.40;99.90;;;;;;5136175;27;20215;-68
2021/04/27 03:59:27;;;;;;;11.45;8.00;;;10.40;99.90;;;;;;5118716;27;20979;-68
2021/04/27 04:01:53;;;;;;;13.50;7.67;;;10.40;99.90;;;;;;5136975;27;20214;-68
2021/04/27 04:04:19;;;;;;;10.57;7.53;;;10.40;99.90;;;;;;5136995;27;20213;-68
2021/04/27 04:06:44;;;;;;;12.30;7.43;;;10.50;99.90;;;;;;5118558;27;20187;-67
2021/04/27 04:09:10;;;;;;;11.90;7.73;;;10.50;99.90;;;;;;5136779;27;20589;-68
2021/04/27 04:11:36;;;;;;;8.17;7.30;;;10.80;99.90;;;;;;5137072;27;20175;-68
2021/04/27 04:14:02;;;;;;;11.80;8.00;;;11.10;99.90;;;;;;5136846;27;20187;-68
2021/04/27 04:16:28;;;;;;;12.38;7.03;;;11.20;99.90;;;;;;5136691;27;20548;-67
2021/04/27 04:18:53;;;;;;;11.20;7.80;;;11.30;99.90;;;;;;5136676;27;20239;-67
2021/04/27 04:21:20;;;;;;;10.83;7.70;;;11.30;99.90;;;;;;5136943;27;20182;-68
2021/04/27 04:23:46;;;;;;;11.52;7.60;;;11.40;99.90;;;;;;5136663;27;20199;-68
2021/04/27 04:26:13;;;;;;;8.95;6.63;;;11.60;99.90;;;;;;5135238;27;20183;-69
2021/04/27 04:28:38;;;;;;;12.10;8.25;;;11.90;99.90;;;;;;5135470;27;20195;-68
2021/04/27 04:31:04;;;;;;;9.80;7.73;;;11.90;99.90;;;;;;5134569;27;20187;-67
2021/04/27 04:33:30;;;;;;;10.93;6.93;;;11.80;99.90;;;;;;5135249;27;20295;-67
2021/04/27 04:35:55;;;;;;;10.93;8.40;;;11.90;99.90;;;;;;5134591;27;20183;-67
2021/04/27 04:38:22;;;;;;;11.27;8.20;;;12.10;99.90;;;;;;5133052;27;20547;-68
2021/04/27 04:40:48;;;;;;;11.18;7.28;;;12.00;99.90;;;;;;5133757;27;20183;-68
2021/04/27 04:43:15;;;;;;;11.48;7.70;;;12.20;99.90;;;;;;5116584;27;20252;-68
2021/04/27 04:45:40;;;;;;;11.82;8.73;;;12.40;99.90;;;;;;5134262;27;20181;-67
2021/04/27 04:48:06;;;;;;;13.03;8.80;;;12.50;99.90;;;;;;5133485;27;20278;-68
2021/04/27 04:50:32;;;;;;;13.00;8.77;;;12.30;99.90;;;;;;5115843;27;20199;-68
2021/04/27 04:52:57;;;;;;;12.47;8.43;;;12.00;99.90;;;;;;5134773;27;21059;-68
2021/04/27 04:55:23;;;;;;;10.30;7.87;;;11.80;99.90;;;;;;5113649;27;20197;-68
2021/04/27 04:57:49;;;;;;;13.03;7.97;;;11.70;99.90;;;;;;5135149;27;20210;-68
2021/04/27 05:00:17;;;;;;;11.87;7.73;;;11.80;99.90;;;;;;5116086;27;20183;-69
2021/04/27 05:02:43;;;;;;;12.70;7.90;;;11.70;99.90;;;;;;5135270;27;20569;-67
2021/04/27 05:05:10;;;;;;;14.73;9.50;;;11.80;99.90;;;;;;5132299;27;20178;-68
2021/04/27 05:07:44;;;;;;;8.63;6.82;;;12.30;99.90;;;;;;5135162;27;20456;-68
2021/04/27 05:10:11;;;;;;;10.40;7.97;;;12.90;99.90;;;;;;5134157;27;20211;-67
2021/04/27 05:12:37;;;;;;;9.18;7.40;;;13.20;99.90;;;;;;5135122;27;20206;-68
2021/04/27 05:15:03;;;;;;;9.90;7.27;;;13.50;99.90;;;;;;5134675;27;20194;-69
2021/04/27 05:17:29;;;;;;;9.10;7.68;;;12.70;99.90;;;;;;5132948;27;20304;-67
2021/04/27 05:19:54;;;;;;;10.90;7.27;;;12.10;99.90;;;;;;5123367;27;20262;-68
2021/04/27 05:22:20;;;;;;;6.93;6.00;;;11.90;99.90;;;;;;5129451;27;20179;-67
2021/04/27 05:24:46;;;;;;;13.70;7.50;;;11.70;99.90;;;;;;5133727;27;20182;-67
2021/04/27 05:27:12;;;;;;;9.20;6.67;;;11.60;99.90;;;;;;5135239;27;20542;-69
2021/04/27 05:29:38;;;;;;;11.63;8.32;;;11.50;99.90;;;;;;5133771;27;20218;-68
2021/04/27 05:32:04;;;;;;;11.13;8.00;;;11.30;99.90;;;;;;5135495;27;20183;-68
2021/04/27 05:34:30;;;;;;;10.90;8.65;;;11.20;99.90;;;;;;5114642;27;20446;-67
2021/04/27 05:36:56;;;;;;;53.10;37.15;;;11.20;99.90;;;;;;5135208;27;20273;-68
2021/04/27 05:39:22;;;;;;;10.87;7.90;;;11.30;99.90;;;;;;5134163;27;20283;-67
2021/04/27 05:41:47;;;;;;;8.43;7.30;;;11.30;99.90;;;;;;5133583;27;20183;-67
2021/04/27 05:44:13;;;;;;;10.00;7.90;;;11.40;99.90;;;;;;5115132;27;20435;-67
2021/04/27 05:46:39;;;;;;;10.23;7.47;;;11.40;99.90;;;;;;5134435;27;20231;-68
2021/04/27 05:49:05;;;;;;;12.23;7.23;;;11.50;99.90;;;;;;5134426;27;20202;-67
2021/04/27 05:51:30;;;;;;;11.70;7.03;;;11.50;99.90;;;;;;5132840;27;20431;-67
2021/04/27 05:53:56;;;;;;;10.17;6.77;;;11.60;99.90;;;;;;5113220;27;20443;-67
2021/04/27 05:56:22;;;;;;;8.60;6.60;;;11.60;99.90;;;;;;5133246;27;20236;-67
2021/04/27 05:58:48;;;;;;;8.70;6.90;;;11.60;99.90;;;;;;5134095;27;20702;-68
2021/04/27 06:01:14;;;;;;;8.07;6.65;;;11.60;99.90;;;;;;5130862;27;20625;-69
2021/04/27 06:03:40;;;;;;;13.20;7.72;;;11.60;99.90;;;;;;5129407;27;20215;-68
2021/04/27 06:06:06;;;;;;;10.90;7.70;;;11.60;99.90;;;;;;5114225;28;20179;-68
2021/04/27 06:08:34;;;;;;;12.13;6.87;;;11.70;99.90;;;;;;5127474;27;20203;-68
2021/04/27 06:11:00;;;;;;;8.77;6.72;;;11.80;99.90;;;;;;5129995;27;20489;-68
2021/04/27 06:13:26;;;;;;;9.63;6.97;;;11.80;99.90;;;;;;5113101;28;20203;-68
2021/04/27 06:15:51;;;;;;;12.07;6.70;;;11.80;99.90;;;;;;5131991;27;20255;-68
2021/04/27 06:18:17;;;;;;;10.53;7.27;;;11.80;99.90;;;;;;5131818;27;20676;-68
2021/04/27 06:20:42;;;;;;;14.63;7.90;;;11.90;99.90;;;;;;5131879;27;20583;-68
2021/04/27 06:23:08;;;;;;;7.53;6.73;;;12.00;99.90;;;;;;5132767;28;20191;-68
2021/04/27 06:25:34;;;;;;;9.70;7.07;;;12.10;99.90;;;;;;5132603;28;20191;-69
2021/04/27 06:28:00;;;;;;;13.77;7.10;;;12.00;99.90;;;;;;5132892;27;20203;-68
2021/04/27 06:30:25;;;;;;;9.80;7.38;;;12.00;99.90;;;;;;5133639;28;20222;-68
2021/04/27 06:32:54;;;;;;;12.33;6.87;;;12.10;99.90;;;;;;5134170;28;20206;-69
2021/04/27 06:35:21;;;;;;;8.23;7.38;;;12.20;99.90;;;;;;5115769;28;20179;-70
2021/04/27 06:37:47;;;;;;;13.15;7.90;;;12.30;99.90;;;;;;5134542;28;20215;-69
2021/04/27 06:40:13;;;;;;;12.77;8.20;;;12.40;99.90;;;;;;5116047;28;20181;-69
2021/04/27 06:42:39;;;;;;;11.40;7.60;;;12.40;99.90;;;;;;5114805;28;20210;-70
2021/04/27 06:45:05;;;;;;;8.30;6.90;;;12.40;99.90;;;;;;5133341;28;20536;-70
2021/04/27 06:47:31;;;;;;;10.05;7.43;;;12.40;99.90;;;;;;5133987;27;20587;-69
2021/04/27 06:49:58;;;;;;;11.60;8.20;;;12.40;99.90;;;;;;5132584;28;20301;-70
2021/04/27 06:52:24;;;;;;;10.93;8.13;;;12.20;99.90;;;;;;5114696;28;20186;-69
2021/04/27 06:54:50;;;;;;;17.40;8.43;;;12.20;99.90;;;;;;5134025;27;20179;-69
2021/04/27 06:57:15;;;;;;;12.27;8.50;;;12.30;99.90;;;;;;5136149;27;20435;-69
2021/04/27 06:59:41;;;;;;;14.63;7.03;;;12.40;99.90;;;;;;5132638;27;20199;-70
2021/04/27 07:02:09;;;;;;;9.60;6.90;;;12.40;99.90;;;;;;5136403;27;20187;-69
2021/04/27 07:04:36;;;;;;;9.55;6.97;;;12.40;99.90;;;;;;5118310;27;20427;-69
2021/04/27 07:07:05;;;;;;;10.33;5.90;;;12.50;99.90;;;;;;5135581;27;20194;-69
2021/04/27 07:09:31;;;;;;;10.30;6.57;;;12.50;99.90;;;;;;5136600;27;20557;-69
2021/04/27 07:11:57;;;;;;;9.93;6.27;;;12.40;99.90;;;;;;5138262;27;20844;-68
2021/04/27 07:14:23;;;;;;;11.90;7.67;;;12.40;99.90;;;;;;5137549;27;20526;-69
2021/04/27 07:16:49;;;;;;;13.77;7.65;;;12.40;99.90;;;;;;5137049;27;20427;-69
2021/04/27 07:19:15;;;;;;;13.37;6.77;;;12.50;99.90;;;;;;5137808;27;20274;-69
2021/04/27 07:21:41;;;;;;;8.93;5.97;;;12.50;99.90;;;;;;5138079;27;20980;-70
2021/04/27 07:24:08;;;;;;;11.37;6.60;;;12.60;99.90;;;;;;5137410;27;20535;-68
2021/04/27 07:26:35;;;;;;;11.63;6.30;;;12.60;99.90;;;;;;5137809;27;20791;-69
2021/04/27 07:29:01;;;;;;;9.70;6.60;;;12.60;99.90;;;;;;5118621;27;20443;-69
2021/04/27 07:31:26;;;;;;;9.60;6.03;;;12.80;99.90;;;;;;5136779;27;20954;-68
2021/04/27 07:33:52;;;;;;;11.27;5.90;;;12.90;99.90;;;;;;5137192;27;20194;-69
2021/04/27 07:36:19;;;;;;;9.37;5.63;;;12.80;99.90;;;;;;5136952;27;20223;-68
2021/04/27 07:38:45;;;;;;;14.97;7.30;;;12.90;99.90;;;;;;5135156;27;20272;-68
2021/04/27 07:41:11;;;;;;;8.47;6.30;;;12.90;99.90;;;;;;5134760;27;21520;-68
2021/04/27 07:43:37;;;;;;;15.00;8.23;;;13.00;99.90;;;;;;5117820;27;20203;-69
2021/04/27 07:46:03;;;;;;;13.73;7.77;;;12.90;99.90;;;;;;5137272;27;20430;-70
2021/04/27 07:48:28;;;;;;;12.03;7.47;;;13.00;99.90;;;;;;5136390;27;20595;-69
2021/04/27 07:50:54;;;;;;;8.70;7.40;;;13.00;99.90;;;;;;5133655;27;20483;-70
2021/04/27 07:53:20;;;;;;;10.77;7.07;;;13.10;99.90;;;;;;5133893;27;20565;-69
2021/04/27 07:55:45;;;;;;;12.97;7.63;;;13.30;99.90;;;;;;5116414;27;20183;-69
2021/04/27 07:58:11;;;;;;;13.67;8.33;;;13.30;99.90;;;;;;5135875;27;20195;-68
2021/04/27 08:00:37;;;;;;;12.00;8.03;;;13.30;99.90;;;;;;5136862;27;20175;-68
2021/04/27 08:03:03;;;;;;;10.60;6.93;;;13.30;99.90;;;;;;5135297;27;20206;-70
2021/04/27 08:05:29;;;;;;;9.07;6.77;;;13.30;99.90;;;;;;5135124;27;20407;-69
2021/04/27 08:07:55;;;;;;;10.63;8.27;;;13.30;99.90;;;;;;5117541;27;20259;-69
2021/04/27 08:10:21;;;;;;;10.23;7.00;;;13.20;99.90;;;;;;5133776;27;20458;-69
2021/04/27 08:12:49;;;;;;;14.00;7.60;;;13.10;99.90;;;;;;5124505;27;20460;-69
2021/04/27 08:15:19;;;;;;;12.20;7.27;;;13.10;99.90;;;;;;5130270;27;20203;-69
2021/04/27 08:17:45;;;;;;;10.50;7.57;;;13.20;99.90;;;;;;5130869;27;20493;-69
2021/04/27 08:20:14;;;;;;;11.90;6.97;;;13.10;99.90;;;;;;5133714;27;20421;-69
2021/04/27 08:22:39;;;;;;;10.50;7.50;;;13.00;99.90;;;;;;5135474;27;20517;-69
2021/04/27 08:25:06;;;;;;;10.50;7.47;;;13.00;99.90;;;;;;5114405;27;20841;-69
2021/04/27 08:27:32;;;;;;;12.00;8.10;;;13.00;99.90;;;;;;5135878;27;20183;-68
2021/04/27 08:29:58;;;;;;;13.50;9.23;;;13.00;99.90;;;;;;5111329;27;21077;-69
2021/04/27 08:32:24;;;;;;;10.40;7.00;;;12.90;99.90;;;;;;5129794;27;20451;-69
2021/04/27 08:34:50;;;;;;;12.37;7.20;;;12.90;99.90;;;;;;5125893;27;20998;-70
2021/04/27 08:37:16;;;;;;;10.43;7.07;;;13.00;99.90;;;;;;5131949;27;20439;-69
2021/04/27 08:39:41;;;;;;;14.63;7.40;;;13.00;99.90;;;;;;5106776;27;20442;-70
2021/04/27 08:42:10;;;;;;;12.37;7.33;;;13.00;99.90;;;;;;5127328;27;20487;-69
2021/04/27 08:44:36;;;;;;;10.07;6.90;;;13.00;99.90;;;;;;5129964;27;20195;-69
2021/04/27 08:47:02;;;;;;;10.90;7.30;;;12.80;99.90;;;;;;5125362;27;20504;-69
2021/04/27 08:49:28;;;;;;;10.13;7.03;;;13.00;99.90;;;;;;5129895;27;20575;-69
2021/04/27 08:51:53;;;;;;;9.60;6.60;;;13.10;99.90;;;;;;5130862;27;20214;-70
2021/04/27 08:54:19;;;;;;;13.93;6.90;;;13.00;99.90;;;;;;5131322;27;20198;-69
2021/04/27 08:56:47;;;;;;;10.80;7.00;;;13.10;99.90;;;;;;5132923;27;20266;-68
2021/04/27 08:59:13;;;;;;;12.23;7.10;;;13.00;99.90;;;;;;5114443;27;20442;-68
2021/04/27 09:01:39;;;;;;;11.30;7.10;;;13.10;99.90;;;;;;5122742;27;20624;-69
2021/04/27 09:04:05;;;;;;;12.07;7.43;;;13.10;99.90;;;;;;5114452;27;21013;-70
2021/04/27 09:06:30;;;;;;;10.97;7.20;;;13.20;99.90;;;;;;5128031;27;20529;-69
2021/04/27 09:08:56;;;;;;;9.20;6.30;;;13.30;99.70;;;;;;5132117;27;20255;-69
2021/04/27 09:11:30;;;;;;;11.33;6.43;;;13.30;99.10;;;;;;5128515;27;20708;-70
2021/04/27 09:14:10;;;;;;;11.77;7.37;;;13.40;99.60;;;;;;5080442;27;20235;-69
2021/04/27 09:16:35;;;;;;;11.90;7.70;;;13.50;99.10;;;;;;5089592;28;20475;-69
2021/04/27 09:19:02;;;;;;;9.97;6.30;;;13.60;99.20;;;;;;5082163;28;20434;-70
2021/04/27 09:21:36;;;;;;;8.73;6.00;;;13.60;99.00;;;;;;5090480;28;20199;-70
2021/04/27 09:24:13;;;;;;;9.03;5.87;;;13.60;99.10;;;;;;5090242;28;20473;-68
2021/04/27 09:26:41;;;;;;;11.50;6.03;;;13.90;99.30;;;;;;5089571;28;20499;-69
2021/04/27 09:29:07;;;;;;;8.63;6.50;;;14.10;99.60;;;;;;5082340;28;20935;-69
2021/04/27 09:31:38;;;;;;;13.10;7.20;;;14.10;99.70;;;;;;5088974;28;20834;-69
2021/04/27 09:34:20;;;;;;;12.30;7.33;;;14.00;99.90;;;;;;5092632;28;20188;-70
2021/04/27 09:36:48;;;;;;;9.63;6.30;;;14.10;99.10;;;;;;5085267;28;20463;-68
2021/04/27 09:39:14;;;;;;;11.83;6.97;;;14.00;98.20;;;;;;5089375;28;20449;-69
2021/04/27 09:41:40;;;;;;;12.27;7.23;;;14.10;98.40;;;;;;5091858;28;20429;-69
2021/04/27 09:44:25;;;;;;;13.47;7.27;;;14.30;98.70;;;;;;5092999;28;20425;-69
2021/04/27 09:47:15;;;;;;;9.23;6.50;;;14.30;97.10;;;;;;5083044;28;20258;-69
2021/04/27 09:49:50;;;;;;;8.40;5.87;;;14.60;98.40;;;;;;5084159;28;20824;-69
2021/04/27 09:52:16;;;;;;;7.93;6.10;;;14.80;97.10;;;;;;5081956;28;20781;-69
2021/04/27 09:54:58;;;;;;;7.37;5.70;;;14.90;98.20;;;;;;5081810;28;20465;-70
2021/04/27 09:57:33;;;;;;;11.60;6.97;;;15.20;97.30;;;;;;5088005;28;20497;-69
2021/04/27 10:00:18;;;;;;;10.90;7.03;;;15.20;96.40;;;;;;5082810;28;20775;-70
2021/04/27 10:02:43;;;;;;;7.60;5.83;;;15.40;95.40;;;;;;5088361;28;20555;-68
2021/04/27 10:05:10;;;;;;;13.47;6.97;;;15.40;95.80;;;;;;5092620;28;20878;-70
2021/04/27 10:07:36;;;;;;;9.13;6.00;;;15.80;95.60;;;;;;5090095;28;20267;-69
2021/04/27 10:10:01;;;;;;;10.10;6.57;;;15.60;95.50;;;;;;5089809;28;20537;-69
2021/04/27 10:12:27;;;;;;;7.70;6.80;;;15.60;96.20;;;;;;5087606;28;20456;-69
2021/04/27 10:14:53;;;;;;;8.57;6.60;;;15.50;94.50;;;;;;5082458;28;20192;-69
2021/04/27 10:17:23;;;;;;;11.13;7.47;;;15.40;96.60;;;;;;5079778;28;20835;-69
2021/04/27 10:19:50;;;;;;;7.30;5.80;;;15.70;95.70;;;;;;5086783;28;20268;-69
2021/04/27 10:22:16;;;;;;;6.97;5.53;;;15.90;94.60;;;;;;5084341;28;20440;-69
2021/04/27 10:24:42;;;;;;;9.47;6.83;;;15.80;94.20;;;;;;5088460;28;20819;-69
2021/04/27 10:27:08;;;;;;;8.33;6.67;;;16.00;94.80;;;;;;5082591;28;20989;-70
2021/04/27 10:29:34;;;;;;;8.73;6.93;;;15.90;93.70;;;;;;5084462;28;20512;-70
2021/04/27 10:32:22;;;;;;;11.43;6.47;;;15.80;93.40;;;;;;5091400;28;20184;-69
2021/04/27 10:34:57;;;;;;;8.63;5.97;;;15.90;93.80;;;;;;5080036;28;20432;-70
2021/04/27 10:37:24;;;;;;;8.03;6.27;;;16.50;93.70;;;;;;5092857;28;20471;-69
2021/04/27 10:39:49;;;;;;;8.50;6.00;;;16.20;93.00;;;;;;5096581;28;20405;-70
2021/04/27 10:42:20;;;;;;;8.40;6.70;;;16.20;93.50;;;;;;5096102;28;20914;-69
2021/04/27 10:45:08;;;;;;;9.10;6.20;;;16.10;94.60;;;;;;5095092;28;20233;-69
2021/04/27 10:47:42;;;;;;;7.40;6.60;;;15.90;92.50;;;;;;5094562;28;20851;-68
2021/04/27 10:50:24;;;;;;;8.37;6.20;;;16.10;92.80;;;;;;5096443;28;20835;-69
2021/04/27 10:52:50;;;;;;;11.10;7.67;;;16.20;92.70;;;;;;5094142;28;20846;-69
2021/04/27 10:55:25;;;;;;;8.83;6.70;;;16.40;93.30;;;;;;5095098;28;20405;-69
2021/04/27 10:57:51;;;;;;;9.70;7.03;;;16.70;92.70;;;;;;5095417;28;20203;-70
2021/04/27 11:00:35;;;;;;;8.40;6.43;;;16.80;92.10;;;;;;5093479;28;20461;-72
2021/04/27 11:03:12;;;;;;;9.23;6.07;;;16.90;92.20;;;;;;5089539;28;20520;-69
2021/04/27 11:05:59;;;;;;;8.47;6.40;;;16.80;91.60;;;;;;5088905;28;20407;-69
2021/04/27 11:08:47;;;;;;;9.83;7.00;;;16.80;92.20;;;;;;5080891;28;20797;-70
2021/04/27 11:11:29;;;;;;;9.90;7.33;;;16.50;90.60;;;;;;5089410;28;20480;-69
2021/04/27 11:14:14;;;;;;;6.57;5.50;;;16.10;93.90;;;;;;5091356;28;20441;-68
2021/04/27 11:16:46;;;;;;;13.40;6.73;;;16.40;91.80;;;;;;5086513;28;20464;-68
2021/04/27 11:19:17;;;;;;;11.23;6.83;;;16.50;90.70;;;;;;5090563;28;20441;-68
2021/04/27 11:21:43;;;;;;;8.30;6.60;;;16.70;90.20;;;;;;5088955;28;20437;-68
2021/04/27 11:24:38;;;;;;;9.57;7.40;;;16.90;91.40;;;;;;5094906;28;20824;-69
2021/04/27 11:27:06;;;;;;;9.87;6.13;;;16.60;89.60;;;;;;5094389;28;20783;-70
2021/04/27 11:29:35;;;;;;;9.37;6.80;;;16.50;90.90;;;;;;5094212;28;20508;-68
2021/04/27 11:32:00;;;;;;;8.00;6.30;;;16.60;90.50;;;;;;5091055;28;20428;-68
2021/04/27 11:34:26;;;;;;;8.77;6.53;;;16.50;90.70;;;;;;5094319;28;20447;-68
2021/04/27 11:36:53;;;;;;;11.23;6.77;;;16.40;89.40;;;;;;5095211;28;20533;-69
2021/04/27 11:39:21;;;;;;;7.13;6.33;;;16.40;90.30;;;;;;5094736;28;20989;-69
2021/04/27 11:41:56;;;;;;;9.50;6.30;;;16.40;90.40;;;;;;5095497;28;20428;-68
2021/04/27 11:44:29;;;;;;;9.20;6.37;;;16.30;90.20;;;;;;5090347;28;20511;-69
2021/04/27 11:47:14;;;;;;;8.83;6.63;;;16.30;90.60;;;;;;5084429;28;20512;-69
2021/04/27 11:50:11;;;;;;;8.17;6.60;;;16.20;89.80;;;;;;5089810;28;20526;-69
2021/04/27 11:53:03;;;;;;;7.33;6.10;;;16.10;91.50;;;;;;5082701;28;20461;-69
2021/04/27 11:55:41;;;;;;;10.60;7.97;;;16.00;89.90;;;;;;5080300;28;20422;-70
2021/04/27 11:58:14;;;;;;;11.77;9.10;;;16.00;90.80;;;;;;5083942;28;20444;-68
2021/04/27 12:00:47;;;;;;;8.47;6.70;;;16.00;90.10;;;;;;5085429;28;20820;-68
2021/04/27 12:03:32;;;;;;;10.60;7.87;;;15.90;90.50;;;;;;5084246;28;20425;-68
2021/04/27 12:06:18;;;;;;;10.03;6.07;;;16.20;90.00;;;;;;5084246;28;20436;-69
2021/04/27 12:08:47;;;;;;;8.97;6.77;;;16.30;89.60;;;;;;5090182;28;20456;-70
2021/04/27 12:11:14;;;;;;;8.07;6.37;;;16.10;89.60;;;;;;5087228;28;20487;-68
2021/04/27 12:14:16;;;;;;;9.20;6.70;;;16.40;89.20;;;;;;5088104;28;20440;-69
2021/04/27 12:16:44;;;;;;;9.03;6.50;;;16.20;88.30;;;;;;5082669;28;20440;-69
2021/04/27 12:19:11;;;;;;;11.27;6.97;;;15.90;90.00;;;;;;5085067;28;20508;-68
2021/04/27 12:21:45;;;;;;;10.07;6.23;;;15.90;89.60;;;;;;5087195;28;20441;-69
2021/04/27 12:24:49;;;;;;;8.17;6.47;;;16.00;89.20;;;;;;5082021;28;20501;-68
2021/04/27 12:27:21;;;;;;;8.33;5.67;;;16.00;87.80;;;;;;5006508;28;20439;-68
2021/04/27 12:30:04;;;;;;;6.37;5.73;;;16.10;89.00;;;;;;5025780;28;20699;-68
2021/04/27 12:32:32;;;;;;;7.73;5.17;;;16.20;87.30;;;;;;5062843;28;20815;-68
2021/04/27 12:34:59;;;;;;;7.20;5.70;;;16.40;86.30;;;;;;5092225;28;20492;-68
2021/04/27 12:37:26;;;;;;;7.27;5.63;;;16.40;87.50;;;;;;5088410;28;20438;-68
2021/04/27 12:39:53;;;;;;;5.60;5.10;;;16.30;86.80;;;;;;5083201;28;20773;-69
2021/04/27 12:42:27;;;;;;;7.67;5.90;;;16.40;87.20;;;;;;5083793;28;20778;-68
2021/04/27 12:45:00;;;;;;;7.33;5.60;;;16.30;86.20;;;;;;5086010;28;20463;-68
2021/04/27 12:47:25;;;;;;;7.33;6.00;;;16.20;85.20;;;;;;5089256;28;20485;-68